createdAt,value
2022-10-24T00:01:50.762Z,23.88
2022-10-24T00:04:21.027Z,23.10
2022-10-24T00:06:53.455Z,24.55
2022-10-24T00:09:25.159Z,23.42
2022-10-24T00:11:55.031Z,22.80
2022-10-24T00:14:29.119Z,23.23
2022-10-24T00:17:01.972Z,23.20
2022-10-24T00:19:30.926Z,25.90
2022-10-24T00:21:59.926Z,27.52
2022-10-24T00:24:32.120Z,24.67
2022-10-24T00:27:01.731Z,23.90
2022-10-24T00:29:33.061Z,24.30
2022-10-24T00:32:11.696Z,23.10
2022-10-24T00:34:41.550Z,23.75
2022-10-24T00:37:13.269Z,23.08
2022-10-24T00:39:45.532Z,22.80
2022-10-24T00:42:21.394Z,50.50
2022-10-24T00:45:06.844Z,46.33
2022-10-24T00:47:39.135Z,43.42
2022-10-24T00:50:15.076Z,25.27
2022-10-24T00:52:49.929Z,23.02
2022-10-24T00:55:20.194Z,23.58
2022-10-24T00:57:55.164Z,24.38
2022-10-24T01:00:44.722Z,24.52
2022-10-24T01:03:14.876Z,25.02
2022-10-24T01:06:12.016Z,27.13
2022-10-24T01:09:05.427Z,24.92
2022-10-24T01:12:10.748Z,24.30
2022-10-24T01:15:09.355Z,25.17
2022-10-24T01:18:08.394Z,24.92
2022-10-24T01:20:53.502Z,26.20
2022-10-24T01:23:49.225Z,28.00
2022-10-24T01:26:48.164Z,28.60
2022-10-24T01:29:35.052Z,25.90
2022-10-24T01:32:22.166Z,27.33
2022-10-24T01:38:14.700Z,27.95
2022-10-24T01:41:07.909Z,26.88
2022-10-24T01:44:15.326Z,27.48
2022-10-24T01:47:16.276Z,27.00
2022-10-24T01:49:53.821Z,28.80
2022-10-24T01:52:28.442Z,28.42
2022-10-24T01:55:05.350Z,28.95
2022-10-24T02:00:08.681Z,29.27
2022-10-24T02:02:48.191Z,28.60
2022-10-24T02:05:27.972Z,29.52
2022-10-24T02:08:10.112Z,30.05
2022-10-24T02:10:47.986Z,30.88
2022-10-24T02:13:56.287Z,30.85
2022-10-24T02:16:33.265Z,29.13
2022-10-24T02:19:05.093Z,31.15
2022-10-24T02:21:43.288Z,32.88
2022-10-24T02:24:33.492Z,32.47
2022-10-24T02:27:23.325Z,31.90
2022-10-24T02:30:04.094Z,35.03
2022-10-24T02:32:46.967Z,35.75
2022-10-24T02:35:17.968Z,36.13
2022-10-24T02:38:00.818Z,34.97
2022-10-24T02:40:40.693Z,35.83
2022-10-24T02:43:12.068Z,39.50
2022-10-24T02:45:47.621Z,35.40
2022-10-24T02:48:20.482Z,36.47
2022-10-24T02:50:59.208Z,37.60
2022-10-24T02:53:37.194Z,35.38
2022-10-24T02:56:12.017Z,37.30
2022-10-24T02:58:44.944Z,38.63
2022-10-24T03:01:17.243Z,33.95
2022-10-24T03:03:47.455Z,34.38
2022-10-24T03:06:18.641Z,34.42
2022-10-24T03:08:50.121Z,35.28
2022-10-24T03:11:18.390Z,34.15
2022-10-24T03:13:47.676Z,35.00
2022-10-24T03:16:22.495Z,35.00
2022-10-24T03:18:54.396Z,35.28
2022-10-24T03:21:24.011Z,34.38
2022-10-24T03:23:54.612Z,37.90
2022-10-24T03:26:24.684Z,35.78
2022-10-24T03:28:55.684Z,37.33
2022-10-24T03:31:29.144Z,34.17
2022-10-24T03:34:09.344Z,38.80
2022-10-24T03:36:39.752Z,37.53
2022-10-24T03:39:18.952Z,36.80
2022-10-24T03:41:55.121Z,49.75
2022-10-24T03:44:24.490Z,38.45
2022-10-24T03:47:12.373Z,44.42
2022-10-24T03:49:44.101Z,34.88
2022-10-24T03:52:14.138Z,36.70
2022-10-24T03:54:42.438Z,36.30
2022-10-24T03:57:13.203Z,33.10
2022-10-24T03:59:44.171Z,34.08
2022-10-24T04:02:14.184Z,34.58
2022-10-24T04:04:45.360Z,34.65
2022-10-24T04:07:16.367Z,30.95
2022-10-24T04:09:51.968Z,51.80
2022-10-24T04:12:22.260Z,41.03
2022-10-24T04:15:00.963Z,42.00
2022-10-24T04:17:34.259Z,33.03
2022-10-24T04:20:04.019Z,40.33
2022-10-24T04:22:34.820Z,34.90
2022-10-24T04:25:04.717Z,33.65
2022-10-24T04:27:37.060Z,31.20
2022-10-24T04:30:16.400Z,31.67
2022-10-24T04:32:47.279Z,32.03
2022-10-24T04:35:18.392Z,34.65
2022-10-24T04:37:49.270Z,44.25
2022-10-24T04:40:21.451Z,42.97
2022-10-24T04:42:54.141Z,32.45
2022-10-24T04:45:25.337Z,38.53
2022-10-24T04:47:55.941Z,50.08
2022-10-24T04:50:34.502Z,44.28
2022-10-24T04:53:07.657Z,37.45
2022-10-24T04:58:11.425Z,37.92
2022-10-24T05:00:48.583Z,30.60
2022-10-24T05:03:19.552Z,38.00
2022-10-24T05:05:51.028Z,30.45
2022-10-24T05:08:23.569Z,28.38
2022-10-24T05:10:59.006Z,28.52
2022-10-24T05:13:48.495Z,38.15
2022-10-24T05:16:19.379Z,29.85
2022-10-24T05:18:49.075Z,38.80
2022-10-24T05:21:18.063Z,30.33
2022-10-24T05:23:54.357Z,48.08
2022-10-24T05:26:28.009Z,33.72
2022-10-24T05:29:00.259Z,36.50
2022-10-24T05:31:44.912Z,32.33
2022-10-24T05:34:16.573Z,30.98
2022-10-24T05:36:50.082Z,31.17
2022-10-24T05:39:29.574Z,31.95
2022-10-24T05:42:06.390Z,29.90
2022-10-24T05:44:35.173Z,28.42
2022-10-24T05:47:07.060Z,29.67
2022-10-24T05:49:38.556Z,29.42
2022-10-24T05:52:08.758Z,28.67
2022-10-24T05:54:55.163Z,31.25
2022-10-24T05:57:31.669Z,40.33
2022-10-24T06:05:21.708Z,29.30
2022-10-24T06:07:50.030Z,31.23
2022-10-24T06:10:19.241Z,30.35
2022-10-24T06:12:51.437Z,30.65
2022-10-24T06:15:22.906Z,29.95
2022-10-24T06:17:54.472Z,30.55
2022-10-24T06:20:22.910Z,29.60
2022-10-24T06:22:54.060Z,32.65
2022-10-24T06:25:24.521Z,29.90
2022-10-24T06:27:58.191Z,31.27
2022-10-24T06:30:34.845Z,34.22
2022-10-24T06:33:07.236Z,29.38
2022-10-24T06:35:41.462Z,29.67
2022-10-24T06:38:11.387Z,29.67
2022-10-24T06:43:50.249Z,29.75
2022-10-24T06:46:25.430Z,32.03
2022-10-24T06:48:55.831Z,26.65
2022-10-24T06:51:27.488Z,26.92
2022-10-24T06:54:00.201Z,27.50
2022-10-24T06:56:35.170Z,27.05
2022-10-24T06:59:11.282Z,28.88
2022-10-24T07:01:42.414Z,28.77
2022-10-24T07:04:12.530Z,30.58
2022-10-24T07:09:44.251Z,32.08
2022-10-24T07:12:22.460Z,30.88
2022-10-24T07:14:59.627Z,31.27
2022-10-24T07:17:50.462Z,30.60
2022-10-24T07:20:35.390Z,32.63
2022-10-24T07:23:11.618Z,31.23
2022-10-24T07:25:43.979Z,31.90
2022-10-24T07:28:16.807Z,28.60
2022-10-24T07:30:46.907Z,28.98
2022-10-24T07:33:20.737Z,32.80
2022-10-24T07:35:58.902Z,42.05
2022-10-24T07:38:30.381Z,30.30
2022-10-24T07:41:10.963Z,30.52
2022-10-24T07:43:53.309Z,33.63
2022-10-24T07:46:32.852Z,36.38
2022-10-24T07:49:04.021Z,33.30
2022-10-24T07:51:32.930Z,33.17
2022-10-24T07:54:05.031Z,35.17
2022-10-24T07:56:35.030Z,36.95
2022-10-24T07:59:09.249Z,31.63
2022-10-24T08:01:41.462Z,33.85
2022-10-24T08:04:13.881Z,39.95
2022-10-24T08:06:45.757Z,42.97
2022-10-24T08:09:15.328Z,34.88
2022-10-24T08:11:57.239Z,39.65
2022-10-24T08:14:46.909Z,36.33
2022-10-24T08:17:30.763Z,35.28
2022-10-24T08:20:04.257Z,35.38
2022-10-24T08:22:57.687Z,30.35
2022-10-24T08:25:26.028Z,27.63
2022-10-24T08:27:59.696Z,29.65
2022-10-24T08:30:41.288Z,31.40
2022-10-24T08:33:10.734Z,29.95
2022-10-24T08:35:39.820Z,30.45
2022-10-24T08:38:15.661Z,32.83
2022-10-24T08:40:53.591Z,30.92
2022-10-24T08:43:32.923Z,29.47
2022-10-24T08:46:22.516Z,33.63
2022-10-24T08:49:36.452Z,33.25
2022-10-24T08:52:48.543Z,33.20
2022-10-24T08:55:48.769Z,32.92
2022-10-24T08:58:35.773Z,28.77
2022-10-24T09:01:21.157Z,30.23
2022-10-24T09:03:56.638Z,38.65
2022-10-24T09:06:28.259Z,35.30
2022-10-24T09:09:23.839Z,36.28
2022-10-24T09:12:20.505Z,30.60
2022-10-24T09:14:59.863Z,35.80
2022-10-24T09:17:50.562Z,30.13
2022-10-24T09:20:38.240Z,30.30
2022-10-24T09:23:09.127Z,34.42
2022-10-24T09:25:42.991Z,29.40
2022-10-24T09:28:13.571Z,32.92
2022-10-24T09:30:43.564Z,30.27
2022-10-24T09:33:27.844Z,28.83
2022-10-24T09:36:06.240Z,28.75
2022-10-24T09:38:41.917Z,29.83
2022-10-24T09:41:36.813Z,29.77
2022-10-24T09:44:34.681Z,28.65
2022-10-24T09:47:12.633Z,29.08
2022-10-24T09:49:46.336Z,30.95
2022-10-24T09:52:21.236Z,31.10
2022-10-24T09:55:21.644Z,27.67
2022-10-24T09:57:56.420Z,44.20
2022-10-24T10:00:37.057Z,38.53
2022-10-24T10:03:23.428Z,39.40
2022-10-24T10:06:05.612Z,29.58
2022-10-24T10:08:36.470Z,28.60
2022-10-24T10:11:13.023Z,29.95
2022-10-24T10:13:56.255Z,27.58
2022-10-24T10:16:39.356Z,28.58
2022-10-24T10:19:18.225Z,25.77
2022-10-24T10:21:58.509Z,27.60
2022-10-24T10:24:59.810Z,25.23
2022-10-24T10:27:32.639Z,26.83
2022-10-24T10:30:14.596Z,38.70
2022-10-24T10:33:26.160Z,24.98
2022-10-24T10:36:19.916Z,24.90
2022-10-24T10:39:12.429Z,23.58
2022-10-24T10:42:23.341Z,23.60
2022-10-24T10:44:54.231Z,34.88
2022-10-24T10:48:08.236Z,31.08
2022-10-24T10:50:52.287Z,27.70
2022-10-24T10:53:45.804Z,26.27
2022-10-24T10:56:30.855Z,25.58
2022-10-24T10:59:29.463Z,26.48
2022-10-24T11:02:20.892Z,24.30
2022-10-24T11:05:34.660Z,25.90
2022-10-24T11:08:23.554Z,24.90
2022-10-24T11:11:13.102Z,22.95
2022-10-24T11:14:31.419Z,21.30
2022-10-24T11:17:29.081Z,25.23
2022-10-24T11:20:21.648Z,24.58
2022-10-24T11:25:59.165Z,22.25
2022-10-24T11:28:45.044Z,21.40
2022-10-24T11:31:39.287Z,25.90
2022-10-24T11:34:37.599Z,21.45
2022-10-24T11:37:29.041Z,23.27
2022-10-24T11:40:12.740Z,21.23
2022-10-24T11:43:20.214Z,22.92
2022-10-24T11:46:02.893Z,21.38
2022-10-24T11:48:41.671Z,23.85
2022-10-24T11:51:40.129Z,20.08
2022-10-24T11:54:26.395Z,20.45
2022-10-24T11:57:08.262Z,21.10
2022-10-24T11:59:42.438Z,18.85
2022-10-24T12:02:26.453Z,17.80
2022-10-24T12:05:17.982Z,18.63
2022-10-24T12:08:13.497Z,17.20
2022-10-24T12:11:14.616Z,33.90
2022-10-24T12:14:03.768Z,25.90
2022-10-24T12:17:09.576Z,22.80
2022-10-24T12:19:44.108Z,20.50
2022-10-24T12:22:27.734Z,20.70
2022-10-24T12:25:11.101Z,18.98
2022-10-24T12:27:46.093Z,24.15
2022-10-24T12:30:19.273Z,24.85
2022-10-24T12:33:07.983Z,24.05
2022-10-24T12:39:04.274Z,18.98
2022-10-24T12:42:03.485Z,18.80
2022-10-24T12:51:41.707Z,18.88
2022-10-24T12:54:50.569Z,20.45
2022-10-24T12:57:47.356Z,19.92
2022-10-24T13:00:35.631Z,20.88
2022-10-24T13:10:35.656Z,18.35
2022-10-24T13:13:37.180Z,19.70
2022-10-24T13:20:16.904Z,18.63
2022-10-24T13:23:22.648Z,21.98
2022-10-24T13:25:58.739Z,24.17
2022-10-24T13:28:34.687Z,30.42
2022-10-24T13:31:22.983Z,26.20
2022-10-24T13:34:38.392Z,20.88
2022-10-24T13:38:07.983Z,27.15
2022-10-24T13:41:19.756Z,28.90
2022-10-24T13:47:19.377Z,24.10
2022-10-24T13:50:07.081Z,23.98
2022-10-24T13:53:05.228Z,25.48
2022-10-24T13:55:50.441Z,23.52
2022-10-24T13:58:27.348Z,26.83
2022-10-24T14:01:11.596Z,22.38
2022-10-24T14:03:47.529Z,20.60
2022-10-24T14:06:44.310Z,21.05
2022-10-24T14:09:28.297Z,24.38
2022-10-24T14:12:04.187Z,21.63
2022-10-24T14:14:41.060Z,22.10
2022-10-24T14:17:33.291Z,23.40
2022-10-24T14:20:39.092Z,23.40
2022-10-24T14:23:41.655Z,49.70
2022-10-24T14:26:22.384Z,105.32
2022-10-24T14:28:58.834Z,71.45
2022-10-24T14:31:35.063Z,36.45
2022-10-24T14:34:09.919Z,24.92
2022-10-24T14:36:39.936Z,31.17
2022-10-24T14:39:19.353Z,25.13
2022-10-24T14:41:51.980Z,22.58
2022-10-24T14:44:22.670Z,28.05
2022-10-24T14:47:28.505Z,24.02
2022-10-24T14:50:30.692Z,22.83
2022-10-24T14:53:41.532Z,27.20
2022-10-24T14:56:28.531Z,22.52
2022-10-24T14:59:02.761Z,25.42
2022-10-24T15:01:37.110Z,26.85
2022-10-24T15:04:09.016Z,42.40
2022-10-24T15:06:57.671Z,34.50
2022-10-24T15:09:29.142Z,32.38
2022-10-24T15:12:13.518Z,33.83
2022-10-24T15:14:49.390Z,42.85
2022-10-24T15:17:36.558Z,40.08
2022-10-24T15:20:08.257Z,34.83
2022-10-24T15:22:45.576Z,38.35
2022-10-24T15:25:26.033Z,42.28
2022-10-24T15:28:00.645Z,47.22
2022-10-24T15:30:32.104Z,39.08
2022-10-24T15:33:06.383Z,30.75
2022-10-24T15:35:41.572Z,48.78
2022-10-24T15:38:18.458Z,84.05
2022-10-24T15:40:48.604Z,119.75
2022-10-24T15:43:25.904Z,146.70
2022-10-24T15:45:57.983Z,141.00
2022-10-24T15:48:26.882Z,141.85
2022-10-24T15:51:01.440Z,114.55
2022-10-24T15:53:35.943Z,135.88
2022-10-24T15:56:04.094Z,86.50
2022-10-24T15:58:33.504Z,68.45
2022-10-24T16:01:02.654Z,55.63
2022-10-24T16:03:35.072Z,70.93
2022-10-24T16:06:04.772Z,171.48
2022-10-24T16:08:35.487Z,110.63
2022-10-24T16:11:06.296Z,82.80
2022-10-24T16:13:41.172Z,97.95
2022-10-24T16:16:11.983Z,99.15
2022-10-24T16:18:40.852Z,99.53
2022-10-24T16:21:21.436Z,89.07
2022-10-24T16:23:52.719Z,72.35
2022-10-24T16:26:22.170Z,63.33
2022-10-24T16:28:51.472Z,61.50
2022-10-24T16:31:23.609Z,71.90
2022-10-24T16:34:03.633Z,72.68
2022-10-24T16:36:32.912Z,58.20
2022-10-24T16:39:01.841Z,46.30
2022-10-24T16:41:46.172Z,63.78
2022-10-24T16:44:14.968Z,31.45
2022-10-24T16:46:45.867Z,34.30
2022-10-24T16:49:17.907Z,38.90
2022-10-24T16:51:46.101Z,38.55
2022-10-24T16:54:14.405Z,32.25
2022-10-24T16:56:53.643Z,30.05
2022-10-24T16:59:29.467Z,28.55
2022-10-24T17:01:59.029Z,29.52
2022-10-24T17:04:34.890Z,25.05
2022-10-24T17:07:14.848Z,27.17
2022-10-24T17:09:49.894Z,27.08
2022-10-24T17:15:09.340Z,29.55
2022-10-24T17:17:40.425Z,38.60
2022-10-24T17:20:37.693Z,36.28
2022-10-24T17:23:09.453Z,41.25
2022-10-24T17:25:41.493Z,39.47
2022-10-24T17:28:16.347Z,56.95
2022-10-24T17:30:49.563Z,75.00
2022-10-24T17:33:21.350Z,92.93
2022-10-24T17:36:44.956Z,103.25
2022-10-24T17:40:15.024Z,30.65
2022-10-24T17:46:21.625Z,48.05
2022-10-24T17:49:28.115Z,50.47
2022-10-24T17:51:59.507Z,54.38
2022-10-24T17:54:28.070Z,44.95
2022-10-24T17:57:00.523Z,33.88
2022-10-24T17:59:30.973Z,31.92
2022-10-24T18:02:09.595Z,33.38
2022-10-24T18:05:03.604Z,33.60
2022-10-24T18:07:58.151Z,43.70
2022-10-24T18:10:40.089Z,34.65
2022-10-24T18:13:19.819Z,29.17
2022-10-24T18:15:53.176Z,33.30
2022-10-24T18:18:26.902Z,31.88
2022-10-24T18:21:14.107Z,39.15
2022-10-24T18:23:53.318Z,47.33
2022-10-24T18:26:25.373Z,55.88
2022-10-24T18:29:05.024Z,56.42
2022-10-24T18:31:40.844Z,49.70
2022-10-24T18:34:09.659Z,42.08
2022-10-24T18:36:39.617Z,34.55
2022-10-24T18:39:26.341Z,47.67
2022-10-24T18:42:44.171Z,34.47
2022-10-24T18:45:31.991Z,27.63
2022-10-24T18:48:36.434Z,26.63
2022-10-24T18:51:14.530Z,20.95
2022-10-24T18:53:49.149Z,21.20
2022-10-24T18:56:24.887Z,24.35
2022-10-24T18:58:59.610Z,26.33
2022-10-24T19:02:01.493Z,25.55
2022-10-24T19:04:46.183Z,20.85
2022-10-24T19:07:22.042Z,23.73
2022-10-24T19:09:56.403Z,24.60
2022-10-24T19:12:29.556Z,25.75
2022-10-24T19:15:05.973Z,21.00
2022-10-24T19:17:43.073Z,24.45
2022-10-24T19:20:26.453Z,28.35
2022-10-24T19:23:11.791Z,33.58
2022-10-24T19:25:47.830Z,49.95
2022-10-24T19:28:20.358Z,31.05
2022-10-24T19:30:51.974Z,23.63
2022-10-24T19:33:28.708Z,35.30
2022-10-24T19:35:57.989Z,44.75
2022-10-24T19:41:25.370Z,74.18
2022-10-24T19:43:55.359Z,55.60
2022-10-24T19:46:28.372Z,37.60
2022-10-24T19:49:01.135Z,33.28
2022-10-24T19:52:02.908Z,32.95
2022-10-24T19:54:38.659Z,49.75
2022-10-24T20:00:10.797Z,55.50
2022-10-24T20:03:07.934Z,31.75
2022-10-24T20:05:42.378Z,32.00
2022-10-24T20:08:14.398Z,27.00
2022-10-24T20:10:53.547Z,22.95
2022-10-24T20:13:24.789Z,21.50
2022-10-24T20:16:07.215Z,22.05
2022-10-24T20:18:42.554Z,21.85
2022-10-24T20:21:39.874Z,28.90
2022-10-24T20:24:09.066Z,29.73
2022-10-24T20:26:39.222Z,27.33
2022-10-24T20:29:08.461Z,27.38
2022-10-24T20:31:43.881Z,29.33
2022-10-24T20:34:12.336Z,21.17
2022-10-24T20:36:48.271Z,25.88
2022-10-24T20:39:21.057Z,30.58
2022-10-24T20:41:53.980Z,28.58
2022-10-24T20:44:22.941Z,26.23
2022-10-24T20:47:00.791Z,23.40
2022-10-24T20:49:32.258Z,21.45
2022-10-24T20:52:01.521Z,33.10
2022-10-24T20:54:30.514Z,22.00
2022-10-24T20:56:59.352Z,19.50
2022-10-24T20:59:30.415Z,17.75
2022-10-24T21:01:58.933Z,36.25
2022-10-24T21:04:28.450Z,19.15
2022-10-24T21:06:56.830Z,18.35
2022-10-24T21:09:25.725Z,23.38
2022-10-24T21:11:56.374Z,22.02
2022-10-24T21:14:24.613Z,26.80
2022-10-24T21:16:53.200Z,22.45
2022-10-24T21:19:24.599Z,20.63
2022-10-24T21:21:55.219Z,25.15
2022-10-24T21:24:26.574Z,23.15
2022-10-24T21:26:56.300Z,29.13
2022-10-24T21:29:33.750Z,28.05
2022-10-24T21:32:10.685Z,26.40
2022-10-24T21:34:42.146Z,23.08
2022-10-24T21:37:10.710Z,35.50
2022-10-24T21:39:39.895Z,28.73
2022-10-24T21:42:08.916Z,19.20
2022-10-24T21:44:37.048Z,18.55
2022-10-24T21:47:06.828Z,23.80
2022-10-24T21:49:36.475Z,17.63
2022-10-24T21:52:05.176Z,17.60
2022-10-24T21:54:33.534Z,20.30
2022-10-24T21:57:02.439Z,18.20
2022-10-24T21:59:39.126Z,22.70
2022-10-24T22:02:11.487Z,24.30
2022-10-24T22:04:42.353Z,20.58
2022-10-24T22:07:19.377Z,22.50
2022-10-24T22:09:53.699Z,18.60
2022-10-24T22:12:30.274Z,20.15
2022-10-24T22:15:08.157Z,20.48
2022-10-24T22:17:37.030Z,20.67
2022-10-24T22:20:11.528Z,18.73
2022-10-24T22:22:39.908Z,20.45
2022-10-24T22:25:09.495Z,33.20
2022-10-24T22:27:38.204Z,19.45
2022-10-24T22:30:15.788Z,33.30
2022-10-24T22:33:08.398Z,21.55
2022-10-24T22:35:36.836Z,23.17
2022-10-24T22:38:06.923Z,17.30
2022-10-24T22:40:48.079Z,18.13
2022-10-24T22:43:17.019Z,14.07
2022-10-24T22:46:18.238Z,15.85
2022-10-24T22:49:06.306Z,14.90
2022-10-24T22:51:37.981Z,16.65
2022-10-24T22:54:19.868Z,16.13
2022-10-24T22:56:53.325Z,13.35
2022-10-24T22:59:26.745Z,11.88
2022-10-24T23:02:40.136Z,12.45
2022-10-24T23:05:34.743Z,10.70
2022-10-24T23:08:19.931Z,10.80
2022-10-24T23:11:07.856Z,10.55
2022-10-24T23:13:41.864Z,9.63
2022-10-24T23:16:39.019Z,12.50
2022-10-24T23:19:25.747Z,12.70
2022-10-24T23:22:06.950Z,17.55
2022-10-24T23:24:36.856Z,13.55
2022-10-24T23:27:35.825Z,13.30
2022-10-24T23:30:16.046Z,11.68
2022-10-24T23:32:45.620Z,13.30
2022-10-24T23:35:16.236Z,11.93
2022-10-24T23:37:47.168Z,10.25
2022-10-24T23:40:29.058Z,9.73
2022-10-24T23:43:08.140Z,10.32
2022-10-24T23:45:44.818Z,10.80
2022-10-24T23:48:57.422Z,9.82
2022-10-24T23:51:49.125Z,11.27
2022-10-24T23:54:28.998Z,10.30
2022-10-24T23:56:57.401Z,10.55
2022-10-24T23:59:27.180Z,9.43
